SARE/RES METAR and TAF weather

Enter ICAO airport designator
Station Type Date Time Source
SARE METAR 2019/06/18 14:00 UTC NOAA

SARE 181400Z 23009KT 9999 BKN011 OVC041 14/14 Q1018


Station Type Date Time Source
SARE Decoded METAR 2019/06/18 14:00 UTC NOAA

Resistencia Aero., Argentina (SARE) 27-27S 059-03W 52M
Jun 18, 2019 - 10:00 AM EDT / 2019.06.18 1400 UTC
Wind: from the SW (230 degrees) at 10 MPH (9 KT):0
Visibility: greater than 7 mile(s):0
Sky conditions: overcast
Temperature: 57 F (14 C)
Dew Point: 57 F (14 C)
Relative Humidity: 100%
Pressure (altimeter): 30.06 in. Hg (1018 hPa)
ob: SARE 181400Z 23009KT 9999 BKN011 OVC041 14/14 Q1018
cycle: 14

Station Type Date Time Source
SARE TAF 2019/06/18 13:35 UTC NOAA

TAF
AMD SARE 181225Z 1813/1912 27010KT 3000 DZ OVC005 TX16/1818Z TN12/1910Z PROB40 1816/1920 9999 BKN008 OVC015

Example: see airport list